Time;durP1;ratioP1;P1;durP2;ratioP2;P2;SDS_P1;SDS_P2;PMS_P1;PMS_P2;Temp;Humidity;BMP_temperature;BMP_pressure;BME280_temperature;BME280_humidity;BME280_pressure;Samples;Min_cycle;Max_cycle;Signal;HPM_P1;HPM_P2
2022/03/22 00:00:50;;;;;;;20.67;16.73;;;13.40;60.70;;;;;;5007540;28;20223;-78
2022/03/22 00:03:19;;;;;;;21.58;16.02;;;13.40;60.70;;;;;;5007779;28;20224;-77
2022/03/22 00:05:46;;;;;;;18.80;15.75;;;13.40;60.00;;;;;;5007781;28;20204;-77
2022/03/22 00:08:14;;;;;;;20.13;16.63;;;13.40;59.90;;;;;;5008575;28;20206;-78
2022/03/22 00:10:41;;;;;;;20.13;16.60;;;13.40;60.30;;;;;;5007121;28;20200;-77
2022/03/22 00:13:08;;;;;;;23.75;17.17;;;13.40;60.00;;;;;;5016273;28;20235;-78
2022/03/22 00:15:36;;;;;;;25.05;16.88;;;13.40;59.70;;;;;;5008541;28;20199;-78
2022/03/22 00:18:05;;;;;;;20.20;15.93;;;13.40;59.50;;;;;;5009964;28;20200;-77
2022/03/22 00:20:33;;;;;;;19.85;16.17;;;13.30;59.80;;;;;;5009142;28;20206;-78
2022/03/22 00:23:01;;;;;;;19.88;16.40;;;13.30;59.60;;;;;;5011080;28;20204;-78
2022/03/22 00:25:28;;;;;;;19.90;16.50;;;13.30;59.20;;;;;;5012740;28;20208;-78
2022/03/22 00:27:58;;;;;;;23.23;16.30;;;13.30;59.20;;;;;;5010591;28;20197;-77
2022/03/22 00:30:27;;;;;;;20.30;16.77;;;13.20;59.80;;;;;;5010018;28;20678;-77
2022/03/22 00:32:58;;;;;;;22.60;16.05;;;13.30;59.10;;;;;;5008702;28;20199;-78
2022/03/22 00:35:30;;;;;;;16.98;14.77;;;13.30;59.20;;;;;;5011738;28;20216;-81
2022/03/22 00:37:59;;;;;;;19.92;14.93;;;13.30;59.00;;;;;;5007530;28;20203;-79
2022/03/22 00:40:28;;;;;;;20.13;15.38;;;13.20;59.20;;;;;;5028056;28;20204;-78
2022/03/22 00:42:56;;;;;;;19.80;16.52;;;13.30;58.80;;;;;;5008831;28;20199;-77
2022/03/22 00:45:55;;;;;;;20.45;16.60;;;13.20;58.30;;;;;;5006813;28;20227;-77
2022/03/22 00:48:23;;;;;;;20.58;16.73;;;13.30;58.20;;;;;;5009007;28;20207;-78
2022/03/22 00:50:52;;;;;;;22.85;16.77;;;13.20;58.00;;;;;;5013709;28;20199;-77
2022/03/22 00:53:19;;;;;;;22.10;16.38;;;13.20;58.00;;;;;;5007982;28;20231;-77
2022/03/22 00:55:48;;;;;;;20.90;15.27;;;13.20;57.90;;;;;;5011995;28;20211;-77
2022/03/22 00:58:16;;;;;;;19.95;15.95;;;13.30;57.60;;;;;;5010714;28;20200;-77
2022/03/22 01:00:44;;;;;;;20.70;16.88;;;13.30;57.60;;;;;;5010638;28;20219;-79
2022/03/22 01:03:11;;;;;;;19.73;15.73;;;13.20;57.20;;;;;;5013509;28;20226;-77
2022/03/22 01:05:39;;;;;;;22.42;16.33;;;13.20;57.20;;;;;;5027416;28;20226;-79
2022/03/22 01:08:20;;;;;;;19.70;15.55;;;13.30;57.70;;;;;;5011856;28;20199;-78
2022/03/22 01:10:52;;;;;;;19.35;15.32;;;13.20;57.20;;;;;;5015010;28;20200;-79
2022/03/22 01:13:21;;;;;;;19.50;15.65;;;13.20;57.00;;;;;;5007755;28;20219;-78
2022/03/22 01:15:49;;;;;;;21.23;15.45;;;13.10;56.70;;;;;;5008159;28;20562;-78
2022/03/22 01:18:17;;;;;;;24.02;15.40;;;13.20;57.20;;;;;;5011816;28;20207;-78
2022/03/22 01:20:47;;;;;;;21.23;16.85;;;13.20;56.70;;;;;;5011280;28;20554;-78
2022/03/22 01:23:16;;;;;;;18.67;15.80;;;13.30;56.60;;;;;;5011093;28;20606;-78
2022/03/22 01:25:45;;;;;;;19.63;16.38;;;13.30;57.00;;;;;;5010929;28;20226;-78
2022/03/22 01:28:14;;;;;;;19.83;14.80;;;13.30;56.90;;;;;;5011733;28;20204;-79
2022/03/22 01:30:42;;;;;;;19.90;15.60;;;13.20;57.40;;;;;;5012616;28;20207;-78
2022/03/22 01:33:12;;;;;;;18.23;15.27;;;13.20;57.00;;;;;;5010129;28;20234;-78
2022/03/22 01:36:24;;;;;;;19.67;16.25;;;13.20;57.10;;;;;;5011343;28;20203;-78
2022/03/22 01:38:52;;;;;;;18.42;16.25;;;13.20;57.60;;;;;;5025210;28;20204;-78
2022/03/22 01:41:21;;;;;;;19.58;15.43;;;13.20;57.50;;;;;;5010152;28;20211;-78
2022/03/22 01:43:50;;;;;;;21.50;15.73;;;13.20;56.90;;;;;;5012416;28;20238;-78
2022/03/22 01:46:24;;;;;;;20.45;16.10;;;13.20;58.10;;;;;;5011966;28;20206;-78
2022/03/22 01:48:52;;;;;;;21.90;16.48;;;13.10;57.70;;;;;;5000097;28;20555;-78
2022/03/22 01:51:21;;;;;;;20.25;16.15;;;13.00;57.50;;;;;;5011434;28;20200;-78
2022/03/22 01:53:50;;;;;;;17.70;15.07;;;12.90;58.00;;;;;;5012263;28;20223;-78
2022/03/22 01:56:18;;;;;;;19.63;15.77;;;12.70;60.00;;;;;;5011627;28;20207;-78
2022/03/22 01:58:48;;;;;;;20.45;16.40;;;12.30;63.40;;;;;;5010022;28;20222;-78
2022/03/22 02:06:46;;;;;;;20.73;16.92;;;12.00;64.30;;;;;;5009684;28;20206;-80
2022/03/22 02:09:14;;;;;;;19.20;16.08;;;12.20;64.30;;;;;;5025146;28;20203;-78
2022/03/22 02:11:42;;;;;;;18.65;16.08;;;12.20;63.40;;;;;;5010104;28;20206;-78
2022/03/22 02:14:11;;;;;;;20.15;16.48;;;12.10;64.00;;;;;;5010258;28;20243;-78
2022/03/22 02:16:38;;;;;;;18.02;15.68;;;12.30;63.30;;;;;;5010628;28;20542;-78
2022/03/22 02:19:16;;;;;;;22.67;16.35;;;12.00;64.80;;;;;;5008616;28;20211;-78
2022/03/22 02:21:43;;;;;;;17.65;15.07;;;12.00;65.40;;;;;;5007203;28;20214;-78
2022/03/22 02:24:12;;;;;;;18.50;15.77;;;11.80;67.60;;;;;;5025417;28;20228;-78
2022/03/22 02:26:40;;;;;;;20.20;15.35;;;11.60;66.60;;;;;;5008493;28;20188;-78
2022/03/22 02:29:07;;;;;;;18.30;15.90;;;11.50;68.40;;;;;;5009038;28;20666;-78
2022/03/22 02:31:35;;;;;;;20.00;15.57;;;11.60;67.20;;;;;;5025711;28;20569;-78
2022/03/22 02:34:39;;;;;;;18.60;15.10;;;11.50;69.00;;;;;;5011037;28;20231;-78
2022/03/22 02:37:07;;;;;;;17.13;14.82;;;11.60;67.40;;;;;;5013543;28;20199;-78
2022/03/22 02:39:35;;;;;;;17.20;15.07;;;11.50;68.60;;;;;;5007183;28;20201;-78
2022/03/22 02:42:03;;;;;;;21.35;15.63;;;11.70;63.30;;;;;;5013552;28;20198;-78
2022/03/22 02:44:30;;;;;;;19.42;15.38;;;11.90;60.90;;;;;;5011144;28;20215;-78
2022/03/22 02:47:10;;;;;;;17.05;14.88;;;12.00;60.70;;;;;;5005331;28;20204;-78
2022/03/22 02:49:37;;;;;;;20.48;14.50;;;12.00;58.80;;;;;;5026741;28;20211;-78
2022/03/22 02:52:05;;;;;;;16.85;13.93;;;12.10;58.90;;;;;;5006501;28;20212;-78
2022/03/22 02:54:32;;;;;;;18.42;14.70;;;12.00;58.50;;;;;;5026467;28;20222;-78
2022/03/22 02:57:01;;;;;;;19.60;14.40;;;12.00;58.30;;;;;;5008765;28;20199;-78
2022/03/22 02:59:28;;;;;;;17.90;14.63;;;12.00;58.60;;;;;;5007492;28;20211;-78
2022/03/22 03:01:57;;;;;;;17.10;14.85;;;12.00;61.00;;;;;;5007899;28;20208;-78
2022/03/22 03:04:24;;;;;;;17.73;14.02;;;12.00;59.80;;;;;;5007783;28;20223;-78
2022/03/22 03:06:52;;;;;;;17.27;14.02;;;12.10;59.10;;;;;;5025944;28;20207;-78
2022/03/22 03:09:19;;;;;;;15.80;13.48;;;12.10;58.20;;;;;;5022382;28;20211;-78
2022/03/22 03:11:47;;;;;;;16.42;13.20;;;12.20;57.50;;;;;;5010240;28;20199;-78
2022/03/22 03:17:00;;;;;;;17.90;13.40;;;12.20;57.20;;;;;;5004278;28;20204;-78
2022/03/22 03:19:28;;;;;;;14.52;12.65;;;12.30;57.30;;;;;;5004373;28;20200;-78
2022/03/22 03:21:55;;;;;;;17.10;14.13;;;12.30;57.70;;;;;;5009288;28;20208;-78
2022/03/22 03:24:23;;;;;;;16.55;13.68;;;12.20;57.20;;;;;;5008949;28;20235;-78
2022/03/22 03:26:51;;;;;;;16.63;13.77;;;12.30;56.30;;;;;;5011034;28;20231;-78
2022/03/22 03:29:19;;;;;;;16.58;14.38;;;12.20;57.90;;;;;;5019027;28;20211;-78
2022/03/22 03:31:48;;;;;;;15.70;13.68;;;12.30;57.50;;;;;;5008701;28;20199;-78
2022/03/22 03:34:16;;;;;;;15.93;13.82;;;12.20;56.60;;;;;;5004838;28;20239;-78
2022/03/22 03:36:43;;;;;;;15.00;13.43;;;12.20;57.20;;;;;;5003384;28;20204;-78
2022/03/22 03:39:11;;;;;;;18.65;14.38;;;12.30;57.20;;;;;;5004488;28;20546;-78
2022/03/22 03:41:54;;;;;;;15.70;13.95;;;12.30;58.00;;;;;;5008779;28;20198;-78
2022/03/22 03:47:11;;;;;;;19.42;15.23;;;11.90;60.50;;;;;;5009602;28;20214;-78
2022/03/22 03:49:40;;;;;;;18.00;13.75;;;11.80;61.70;;;;;;5020056;28;20191;-78
2022/03/22 03:52:09;;;;;;;18.10;15.25;;;11.90;59.40;;;;;;5005441;28;20279;-78
2022/03/22 03:54:37;;;;;;;20.75;16.23;;;11.50;63.80;;;;;;5007589;28;20234;-78
2022/03/22 03:57:05;;;;;;;18.15;15.32;;;11.30;64.90;;;;;;5024218;28;20196;-78
2022/03/22 03:59:35;;;;;;;18.52;15.48;;;11.10;68.40;;;;;;5028373;28;20211;-78
2022/03/22 04:02:03;;;;;;;19.27;15.10;;;10.90;69.50;;;;;;5013423;28;20557;-78
2022/03/22 04:04:31;;;;;;;21.08;15.63;;;11.00;70.00;;;;;;5011697;28;20234;-78
2022/03/22 04:06:59;;;;;;;21.58;15.75;;;10.90;70.40;;;;;;5028161;28;20226;-78
2022/03/22 04:09:27;;;;;;;20.48;16.65;;;10.90;70.10;;;;;;5011070;28;20203;-78
2022/03/22 04:11:55;;;;;;;21.02;17.23;;;10.70;70.90;;;;;;5034346;28;20211;-78
2022/03/22 04:14:22;;;;;;;20.23;16.50;;;10.50;72.40;;;;;;5011879;28;20246;-78
2022/03/22 04:16:51;;;;;;;21.52;16.50;;;10.40;75.20;;;;;;5012664;28;20855;-78
2022/03/22 04:19:18;;;;;;;18.53;14.77;;;10.20;73.80;;;;;;5012279;28;20210;-78
2022/03/22 04:21:46;;;;;;;17.17;14.50;;;10.20;74.20;;;;;;5005102;28;20206;-78
2022/03/22 04:24:14;;;;;;;17.15;14.82;;;10.20;70.80;;;;;;5012473;28;20226;-78
2022/03/22 04:26:44;;;;;;;17.80;14.33;;;10.10;71.70;;;;;;5027088;28;20211;-79
2022/03/22 04:34:59;;;;;;;19.52;15.60;;;10.70;70.30;;;;;;4971447;28;20216;-78
2022/03/22 04:37:27;;;;;;;18.20;15.33;;;10.50;73.10;;;;;;4975899;28;20209;-78
2022/03/22 04:39:54;;;;;;;17.17;14.73;;;10.30;73.80;;;;;;4987585;28;20204;-78
2022/03/22 04:42:21;;;;;;;19.23;15.40;;;10.20;74.60;;;;;;5008543;28;20201;-78
2022/03/22 04:44:51;;;;;;;16.83;14.93;;;10.00;75.90;;;;;;5012310;28;20701;-78
2022/03/22 04:47:20;;;;;;;17.80;14.90;;;9.90;79.90;;;;;;5030891;28;20211;-78
2022/03/22 04:49:48;;;;;;;16.73;14.83;;;9.70;79.80;;;;;;5010274;28;20203;-78
2022/03/22 04:57:52;;;;;;;17.03;13.33;;;9.40;78.80;;;;;;5004791;28;20531;-78
2022/03/22 05:00:20;;;;;;;17.93;14.90;;;9.40;82.00;;;;;;5011450;28;20207;-78
2022/03/22 05:02:53;;;;;;;14.97;13.37;;;9.50;83.40;;;;;;5011179;28;20211;-78
2022/03/22 05:06:25;;;;;;;18.67;13.60;;;9.40;86.30;;;;;;5010104;28;20206;-78
2022/03/22 05:08:09;;;;;;;18.23;14.67;;;9.30;86.80;;;;;;5010323;28;20215;-78
2022/03/22 05:10:37;;;;;;;17.67;14.13;;;9.30;86.20;;;;;;5009967;28;20573;-78
2022/03/22 05:13:05;;;;;;;17.17;13.53;;;9.30;85.80;;;;;;5027502;28;20192;-78
2022/03/22 05:15:33;;;;;;;16.47;13.83;;;9.30;82.10;;;;;;5009535;28;20560;-78
2022/03/22 05:18:04;;;;;;;15.27;13.67;;;9.20;81.40;;;;;;5009280;28;20204;-78
2022/03/22 05:20:32;;;;;;;17.20;13.90;;;9.20;82.80;;;;;;5010471;28;20605;-78
2022/03/22 05:22:59;;;;;;;17.20;12.73;;;9.10;80.90;;;;;;5008860;28;20218;-78
2022/03/22 05:25:30;;;;;;;17.23;13.70;;;9.00;80.60;;;;;;5010847;28;20200;-78
2022/03/22 05:27:58;;;;;;;17.90;14.53;;;9.10;80.60;;;;;;5004904;28;20207;-78
2022/03/22 05:30:26;;;;;;;17.23;13.80;;;9.20;81.10;;;;;;5009752;28;20211;-78
2022/03/22 05:32:53;;;;;;;16.40;12.37;;;9.30;79.10;;;;;;5011559;28;20199;-76
2022/03/22 05:35:23;;;;;;;15.10;13.43;;;9.40;79.70;;;;;;5010400;28;20684;-76
2022/03/22 05:37:51;;;;;;;15.07;13.03;;;9.40;83.50;;;;;;5021105;28;20682;-76
2022/03/22 05:40:19;;;;;;;16.40;13.13;;;9.30;85.20;;;;;;5010429;28;20207;-76
2022/03/22 05:42:47;;;;;;;17.07;12.87;;;9.40;82.80;;;;;;5010902;28;20210;-76
2022/03/22 05:45:15;;;;;;;14.70;12.97;;;9.50;84.60;;;;;;5007286;28;20232;-76
2022/03/22 05:47:42;;;;;;;16.60;13.57;;;9.40;85.10;;;;;;5010731;28;20218;-76
2022/03/22 05:50:10;;;;;;;18.57;13.57;;;9.30;85.00;;;;;;5011385;28;20210;-76
2022/03/22 05:52:43;;;;;;;15.00;12.70;;;9.40;84.40;;;;;;5007611;28;20206;-76
2022/03/22 05:55:11;;;;;;;16.87;13.03;;;9.50;83.00;;;;;;5007244;28;20589;-76
2022/03/22 05:57:39;;;;;;;19.60;13.67;;;9.60;80.60;;;;;;5009491;28;20191;-76
2022/03/22 06:00:08;;;;;;;15.13;13.33;;;9.60;81.20;;;;;;5012436;28;20192;-76
2022/03/22 06:02:37;;;;;;;14.77;13.20;;;9.60;79.50;;;;;;5010917;28;20196;-77
2022/03/22 06:05:08;;;;;;;17.47;12.70;;;9.70;79.40;;;;;;5004672;28;20596;-77
2022/03/22 06:07:37;;;;;;;13.70;12.17;;;9.80;81.50;;;;;;5006871;28;20252;-77
2022/03/22 06:10:14;;;;;;;15.50;13.13;;;10.00;81.90;;;;;;5024657;28;20961;-77
2022/03/22 06:12:48;;;;;;;16.20;13.93;;;10.70;79.40;;;;;;5011173;28;20191;-77
2022/03/22 06:15:18;;;;;;;17.70;14.13;;;10.10;78.50;;;;;;5024257;28;20234;-76
2022/03/22 06:17:55;;;;;;;19.57;14.27;;;9.80;79.70;;;;;;5009187;28;20203;-76
2022/03/22 06:20:24;;;;;;;16.43;14.63;;;9.70;79.80;;;;;;5011065;28;20230;-77
2022/03/22 06:22:52;;;;;;;18.83;14.60;;;9.70;78.80;;;;;;5008872;28;20211;-77
2022/03/22 06:25:30;;;;;;;19.63;13.93;;;9.70;78.80;;;;;;5011630;28;20267;-77
2022/03/22 06:27:58;;;;;;;17.27;14.67;;;9.70;79.40;;;;;;5002852;28;20693;-77
2022/03/22 06:30:34;;;;;;;17.27;14.07;;;9.80;80.10;;;;;;5024328;28;20196;-77
2022/03/22 06:33:07;;;;;;;17.13;14.60;;;9.90;78.60;;;;;;5009662;28;20210;-77
2022/03/22 06:35:41;;;;;;;19.07;14.80;;;9.90;79.10;;;;;;5005880;28;20226;-77
2022/03/22 06:38:08;;;;;;;20.83;15.63;;;10.00;77.10;;;;;;5008956;28;20207;-77
2022/03/22 06:40:39;;;;;;;18.73;14.57;;;10.30;76.10;;;;;;5010096;28;20188;-77
2022/03/22 06:43:14;;;;;;;19.67;15.13;;;10.30;77.80;;;;;;5007908;28;20191;-77
2022/03/22 06:45:46;;;;;;;18.17;14.07;;;10.40;76.30;;;;;;5008972;28;20191;-77
2022/03/22 06:48:15;;;;;;;15.83;13.93;;;10.40;74.80;;;;;;5007751;28;20589;-77
2022/03/22 06:50:44;;;;;;;18.20;14.67;;;10.60;74.10;;;;;;5021319;28;20219;-77
2022/03/22 06:53:11;;;;;;;21.17;15.50;;;10.50;74.40;;;;;;5008997;28;20216;-77
2022/03/22 06:55:41;;;;;;;18.00;15.47;;;10.60;74.00;;;;;;5025269;28;20210;-79
2022/03/22 06:58:08;;;;;;;21.13;16.23;;;10.70;73.50;;;;;;5004495;28;20199;-78
2022/03/22 07:00:55;;;;;;;20.85;15.38;;;10.90;73.90;;;;;;5009629;28;20211;-77
2022/03/22 07:03:22;;;;;;;21.63;16.13;;;11.00;74.20;;;;;;5011243;28;20225;-78
2022/03/22 07:05:49;;;;;;;20.23;15.55;;;11.20;74.40;;;;;;5010446;28;20207;-77
2022/03/22 07:08:17;;;;;;;21.40;16.87;;;11.40;75.20;;;;;;5007008;28;20216;-78
2022/03/22 07:13:45;;;;;;;22.02;16.70;;;11.60;73.40;;;;;;5009944;28;20215;-78
2022/03/22 07:16:12;;;;;;;24.67;18.10;;;11.60;73.90;;;;;;5011296;28;20207;-77
2022/03/22 07:18:40;;;;;;;19.02;16.10;;;11.80;73.20;;;;;;5014386;28;20184;-77
2022/03/22 07:21:07;;;;;;;23.95;17.13;;;11.90;73.50;;;;;;5021673;28;20214;-78
2022/03/22 07:23:35;;;;;;;24.33;17.92;;;12.00;73.40;;;;;;5010192;28;20246;-77
2022/03/22 07:26:04;;;;;;;22.42;17.48;;;12.00;72.90;;;;;;5011219;28;20195;-77
2022/03/22 07:28:50;;;;;;;22.42;17.67;;;12.00;73.10;;;;;;4999918;28;20687;-77
2022/03/22 07:31:17;;;;;;;23.52;17.23;;;12.10;74.00;;;;;;5006175;28;20195;-78
2022/03/22 07:33:45;;;;;;;26.55;18.27;;;12.20;74.80;;;;;;5011715;28;20220;-77
2022/03/22 07:36:12;;;;;;;24.55;19.20;;;12.20;74.80;;;;;;5011601;28;20203;-77
2022/03/22 07:38:39;;;;;;;22.63;18.95;;;12.40;74.50;;;;;;5003036;28;20196;-77
2022/03/22 07:41:10;;;;;;;24.13;19.20;;;12.40;74.10;;;;;;5009382;28;20207;-77
2022/03/22 07:43:38;;;;;;;25.20;18.95;;;12.50;73.10;;;;;;5026957;28;20223;-77
2022/03/22 07:46:05;;;;;;;25.42;19.85;;;12.50;73.10;;;;;;5008447;28;20684;-77
2022/03/22 07:48:33;;;;;;;30.20;19.83;;;12.50;73.20;;;;;;5002550;28;20227;-77
2022/03/22 07:53:46;;;;;;;25.73;18.73;;;12.50;72.60;;;;;;5007449;28;20210;-77
2022/03/22 07:56:14;;;;;;;21.00;18.73;;;12.60;72.30;;;;;;5022866;28;20546;-77
2022/03/22 07:58:42;;;;;;;26.42;19.38;;;12.70;71.80;;;;;;5010709;28;20215;-77
2022/03/22 08:01:09;;;;;;;23.40;19.23;;;12.80;70.30;;;;;;5026568;28;20208;-77
2022/03/22 08:03:37;;;;;;;26.63;19.67;;;12.90;70.20;;;;;;5011296;28;20216;-77
2022/03/22 08:06:07;;;;;;;25.40;20.50;;;13.00;70.20;;;;;;5009881;28;20558;-77
2022/03/22 08:08:34;;;;;;;25.13;20.80;;;13.00;69.50;;;;;;5010215;28;20681;-77
2022/03/22 08:11:05;;;;;;;25.70;19.98;;;13.10;69.60;;;;;;5026318;28;20203;-77
2022/03/22 08:13:35;;;;;;;26.38;20.83;;;13.10;69.30;;;;;;5024127;28;20220;-78
2022/03/22 08:16:03;;;;;;;23.25;20.00;;;13.20;68.80;;;;;;5010336;28;20208;-77
2022/03/22 08:18:31;;;;;;;22.45;18.80;;;13.30;66.50;;;;;;5010941;28;20673;-77
2022/03/22 08:20:58;;;;;;;24.75;19.30;;;13.40;65.60;;;;;;5010751;28;20207;-78
2022/03/22 08:23:26;;;;;;;24.30;18.42;;;13.40;64.30;;;;;;5010212;28;20231;-78
2022/03/22 08:25:53;;;;;;;23.63;18.77;;;13.50;63.00;;;;;;5011144;28;20200;-77
2022/03/22 08:28:21;;;;;;;25.88;21.42;;;13.60;62.20;;;;;;5009796;28;20230;-77
2022/03/22 08:30:52;;;;;;;24.40;18.20;;;13.70;63.10;;;;;;5006468;28;20215;-78
2022/03/22 08:33:20;;;;;;;20.38;17.73;;;13.80;61.70;;;;;;5010046;28;20581;-78
2022/03/22 08:36:03;;;;;;;17.48;15.63;;;13.90;60.40;;;;;;5020637;28;20688;-78
2022/03/22 08:38:30;;;;;;;21.40;17.30;;;14.00;57.30;;;;;;5010049;28;20203;-78
2022/03/22 08:40:58;;;;;;;20.73;16.08;;;14.20;56.60;;;;;;5011514;28;20220;-77
2022/03/22 08:43:26;;;;;;;19.63;16.83;;;14.20;57.00;;;;;;5009732;28;20231;-78
2022/03/22 08:45:55;;;;;;;20.90;17.60;;;14.30;57.70;;;;;;5013147;28;20207;-78
2022/03/22 08:48:23;;;;;;;17.75;15.05;;;14.40;58.70;;;;;;5012887;28;20224;-78
2022/03/22 08:50:53;;;;;;;15.95;14.00;;;14.50;54.00;;;;;;5033715;28;20218;-78
2022/03/22 08:53:21;;;;;;;18.60;14.93;;;14.70;53.40;;;;;;5010759;28;20326;-78
2022/03/22 08:55:49;;;;;;;15.80;13.68;;;14.70;53.10;;;;;;5026887;28;20207;-78
2022/03/22 08:58:17;;;;;;;18.08;14.68;;;14.60;49.40;;;;;;5012044;28;20196;-79
2022/03/22 09:00:56;;;;;;;16.38;13.82;;;14.70;49.10;;;;;;5020517;28;20553;-78
2022/03/22 09:03:26;;;;;;;17.60;14.85;;;14.80;50.60;;;;;;5014684;28;20223;-77
2022/03/22 09:06:07;;;;;;;17.38;14.23;;;15.00;51.10;;;;;;5012975;28;20207;-78
2022/03/22 09:08:35;;;;;;;20.60;15.00;;;15.00;50.20;;;;;;5008890;28;20700;-78
2022/03/22 09:11:03;;;;;;;17.80;13.63;;;15.20;51.30;;;;;;5015056;28;20203;-77
2022/03/22 09:13:41;;;;;;;18.40;13.32;;;15.40;53.00;;;;;;5011376;28;20590;-77
2022/03/22 09:16:20;;;;;;;17.30;14.40;;;15.60;55.20;;;;;;5014541;28;20211;-77
2022/03/22 09:18:48;;;;;;;16.65;14.55;;;15.80;53.50;;;;;;5014460;28;20196;-77
2022/03/22 09:21:16;;;;;;;16.25;14.52;;;15.70;51.10;;;;;;5019448;28;20203;-77
2022/03/22 09:23:44;;;;;;;19.23;14.85;;;15.50;49.80;;;;;;5011378;28;20714;-75
2022/03/22 09:26:11;;;;;;;18.38;14.18;;;15.50;49.50;;;;;;5008211;28;20288;-76
2022/03/22 09:28:39;;;;;;;16.33;14.00;;;15.60;48.90;;;;;;5012410;28;20208;-76
2022/03/22 09:31:07;;;;;;;17.40;14.18;;;15.50;47.80;;;;;;5023682;28;20221;-76
2022/03/22 09:33:36;;;;;;;15.70;13.63;;;15.50;49.20;;;;;;5015337;28;20228;-77
2022/03/22 09:36:04;;;;;;;16.92;14.25;;;15.50;49.20;;;;;;5011046;28;20203;-76
2022/03/22 09:38:37;;;;;;;16.33;13.65;;;15.60;49.10;;;;;;5010921;28;20207;-76
2022/03/22 09:41:06;;;;;;;14.80;13.18;;;15.60;50.00;;;;;;5013555;28;20199;-76
2022/03/22 09:43:37;;;;;;;15.32;13.40;;;15.80;50.00;;;;;;5013764;28;20216;-77
2022/03/22 09:46:05;;;;;;;17.13;13.75;;;16.00;49.00;;;;;;5014316;28;20211;-76
2022/03/22 09:48:34;;;;;;;16.20;13.52;;;16.20;49.00;;;;;;5011950;28;20211;-76
2022/03/22 09:53:49;;;;;;;16.40;14.50;;;16.10;48.50;;;;;;5011388;28;20216;-77
2022/03/22 09:57:11;;;;;;;16.77;14.90;;;16.20;47.50;;;;;;5028552;28;20204;-77
2022/03/22 09:59:41;;;;;;;16.90;14.02;;;16.40;49.70;;;;;;5006656;28;20189;-77
2022/03/22 10:02:09;;;;;;;16.58;14.73;;;16.60;47.70;;;;;;4994168;28;20200;-76
2022/03/22 10:04:38;;;;;;;16.05;13.80;;;16.50;48.50;;;;;;5004733;28;20593;-76
2022/03/22 10:07:20;;;;;;;21.92;14.98;;;16.60;47.80;;;;;;5011804;28;20200;-76
2022/03/22 10:09:52;;;;;;;16.25;14.52;;;16.70;48.20;;;;;;5019926;28;20223;-76
2022/03/22 10:12:26;;;;;;;15.73;14.15;;;16.80;47.80;;;;;;5029307;28;20211;-76
2022/03/22 10:14:53;;;;;;;24.15;15.57;;;16.90;48.70;;;;;;5013350;28;20227;-77
2022/03/22 10:17:21;;;;;;;16.20;14.32;;;17.00;47.40;;;;;;5026125;28;20195;-76
2022/03/22 10:19:50;;;;;;;19.10;14.73;;;17.20;46.80;;;;;;5012391;28;20195;-76
2022/03/22 10:22:24;;;;;;;16.83;14.48;;;17.40;47.20;;;;;;5013838;28;20195;-77
2022/03/22 10:24:55;;;;;;;17.33;15.18;;;17.50;47.10;;;;;;5006883;28;20215;-76
2022/03/22 10:27:35;;;;;;;18.10;14.75;;;17.60;47.20;;;;;;5011457;28;20207;-76
2022/03/22 10:30:06;;;;;;;16.23;14.55;;;17.50;48.70;;;;;;5011732;28;20246;-76
2022/03/22 10:32:35;;;;;;;19.75;15.38;;;17.70;49.10;;;;;;5011181;28;20231;-76
2022/03/22 10:35:19;;;;;;;16.65;14.95;;;17.50;49.10;;;;;;5008052;28;20238;-77
2022/03/22 10:37:49;;;;;;;18.80;13.90;;;17.60;48.70;;;;;;5005018;28;20198;-78
2022/03/22 10:40:24;;;;;;;20.23;14.98;;;17.70;47.20;;;;;;5024071;28;20203;-78
2022/03/22 10:42:54;;;;;;;16.20;13.88;;;17.90;46.70;;;;;;5006508;28;20200;-78
2022/03/22 10:45:21;;;;;;;19.33;15.60;;;18.00;47.30;;;;;;5007237;28;20207;-78
2022/03/22 10:47:49;;;;;;;23.92;16.45;;;18.00;47.60;;;;;;5007424;28;20211;-78
2022/03/22 10:50:19;;;;;;;23.55;14.50;;;18.00;47.70;;;;;;5022937;28;20211;-78
2022/03/22 10:52:53;;;;;;;15.60;13.15;;;18.10;46.90;;;;;;5009033;28;20204;-78
2022/03/22 10:55:22;;;;;;;16.08;13.07;;;18.20;47.40;;;;;;4992981;28;20232;-78
2022/03/22 10:58:00;;;;;;;14.25;12.73;;;18.30;46.20;;;;;;5001836;28;20207;-78
2022/03/22 11:00:46;;;;;;;20.30;13.48;;;18.30;46.30;;;;;;5018223;28;20202;-78
2022/03/22 11:03:15;;;;;;;15.98;11.52;;;18.20;46.10;;;;;;5019321;28;20199;-77
2022/03/22 11:05:46;;;;;;;14.82;12.43;;;18.30;46.80;;;;;;5005104;28;20207;-78
2022/03/22 11:08:23;;;;;;;17.15;14.15;;;18.40;46.20;;;;;;5006681;28;20236;-78
2022/03/22 11:10:54;;;;;;;15.75;12.38;;;18.70;45.00;;;;;;5003127;28;20583;-78
2022/03/22 11:13:22;;;;;;;15.82;12.32;;;18.60;45.40;;;;;;5009874;28;20234;-78
2022/03/22 11:15:50;;;;;;;16.98;13.32;;;18.70;45.20;;;;;;5008434;28;20211;-77
2022/03/22 11:18:44;;;;;;;15.13;12.52;;;18.80;44.40;;;;;;5021840;28;20568;-78
2022/03/22 11:21:17;;;;;;;16.85;13.35;;;18.90;45.30;;;;;;5010692;28;20206;-78
2022/03/22 11:23:47;;;;;;;21.00;13.93;;;19.30;45.00;;;;;;5019510;28;20219;-78
2022/03/22 11:26:19;;;;;;;14.95;13.00;;;19.20;44.70;;;;;;5009178;28;20676;-78
2022/03/22 11:28:48;;;;;;;16.98;13.52;;;19.40;45.80;;;;;;5005441;28;20212;-78
2022/03/22 11:31:20;;;;;;;17.75;13.40;;;19.40;45.70;;;;;;5018355;28;20212;-78
2022/03/22 11:36:44;;;;;;;17.08;13.77;;;19.30;45.70;;;;;;5021939;28;20195;-78
2022/03/22 11:42:15;;;;;;;20.02;13.18;;;19.30;44.20;;;;;;5008011;28;20200;-78
2022/03/22 11:42:17;;;;;;;14.80;12.68;;;19.50;43.30;;;;;;5009573;28;20195;-78
2022/03/22 11:44:56;;;;;;;15.65;12.02;;;19.70;43.40;;;;;;5009277;28;20207;-78
2022/03/22 11:47:23;;;;;;;15.23;11.63;;;19.70;43.50;;;;;;5000753;28;20223;-78
2022/03/22 11:49:53;;;;;;;15.52;11.73;;;19.80;42.70;;;;;;5009605;28;20216;-78
2022/03/22 11:52:21;;;;;;;17.92;12.88;;;19.80;43.00;;;;;;5020411;28;20583;-78
2022/03/22 11:55:05;;;;;;;14.95;12.65;;;20.00;42.30;;;;;;5000430;28;20212;-78
2022/03/22 11:57:53;;;;;;;15.27;11.85;;;19.90;42.60;;;;;;5007416;28;20188;-78
2022/03/22 12:00:23;;;;;;;16.55;12.07;;;19.90;42.80;;;;;;5008041;28;20195;-78
2022/03/22 12:02:55;;;;;;;13.95;11.05;;;20.10;42.80;;;;;;5014091;28;20227;-78
2022/03/22 12:05:24;;;;;;;14.60;10.80;;;20.10;42.30;;;;;;5008121;28;20200;-78
2022/03/22 12:07:52;;;;;;;12.73;10.65;;;20.10;42.20;;;;;;5025927;28;20211;-78
2022/03/22 12:10:21;;;;;;;13.75;10.65;;;20.40;41.80;;;;;;5003381;28;20219;-78
2022/03/22 12:12:50;;;;;;;11.45;9.57;;;20.80;41.40;;;;;;5011991;28;20525;-78
2022/03/22 12:15:19;;;;;;;14.38;9.77;;;20.90;39.90;;;;;;5009450;28;20238;-78
2022/03/22 12:17:47;;;;;;;13.50;10.43;;;20.70;39.60;;;;;;5011476;28;20195;-78
2022/03/22 12:20:17;;;;;;;12.95;10.10;;;20.90;39.50;;;;;;5018977;28;20206;-78
2022/03/22 12:22:47;;;;;;;17.17;10.55;;;20.90;40.20;;;;;;5027724;28;20199;-78
2022/03/22 12:25:19;;;;;;;11.57;9.45;;;21.00;40.70;;;;;;5013496;28;20681;-78
2022/03/22 12:27:53;;;;;;;14.85;9.93;;;21.20;40.40;;;;;;5019543;28;20192;-78
2022/03/22 12:30:24;;;;;;;13.20;10.02;;;21.10;39.60;;;;;;5010668;28;20219;-78
2022/03/22 12:32:52;;;;;;;12.90;9.80;;;20.90;38.50;;;;;;5008978;28;20654;-78
2022/03/22 12:35:20;;;;;;;12.55;10.55;;;20.90;40.30;;;;;;5013071;28;20215;-78
2022/03/22 12:37:48;;;;;;;12.98;9.82;;;21.10;39.30;;;;;;5010942;28;20195;-78
2022/03/22 12:40:17;;;;;;;10.00;8.70;;;21.20;38.70;;;;;;5012325;28;20535;-78
2022/03/22 12:42:46;;;;;;;13.65;9.63;;;20.80;38.20;;;;;;5011492;28;20208;-78
2022/03/22 12:45:15;;;;;;;13.40;9.00;;;20.60;38.00;;;;;;5011238;28;20578;-78
2022/03/22 12:47:44;;;;;;;12.43;9.73;;;21.50;38.50;;;;;;5004063;28;20203;-78
2022/03/22 12:50:17;;;;;;;11.13;9.02;;;21.00;37.20;;;;;;5013715;28;20710;-78
2022/03/22 12:52:44;;;;;;;11.00;8.23;;;21.10;38.00;;;;;;5010797;28;20214;-78
2022/03/22 12:55:14;;;;;;;10.13;8.98;;;21.30;36.70;;;;;;5010703;28;20230;-78
2022/03/22 12:57:46;;;;;;;13.98;9.32;;;22.30;36.20;;;;;;5011723;28;20658;-77
2022/03/22 13:00:27;;;;;;;15.23;8.57;;;21.80;37.90;;;;;;5008483;28;20671;-77
2022/03/22 13:02:55;;;;;;;12.95;8.57;;;22.50;38.00;;;;;;5031178;28;20200;-77
2022/03/22 13:05:25;;;;;;;13.20;7.75;;;21.90;35.90;;;;;;5012634;28;20196;-77
2022/03/22 13:07:52;;;;;;;11.40;7.70;;;21.20;35.70;;;;;;5009442;28;20199;-78
2022/03/22 13:13:17;;;;;;;14.15;8.27;;;22.70;34.90;;;;;;5007863;28;20661;-78
2022/03/22 13:15:49;;;;;;;14.85;7.65;;;23.40;35.40;;;;;;5009809;28;20203;-77
2022/03/22 13:18:16;;;;;;;14.80;7.38;;;23.60;33.80;;;;;;5026157;28;20210;-78
2022/03/22 13:20:50;;;;;;;15.15;8.38;;;23.60;34.00;;;;;;5028532;28;20580;-78